CYGK

Kingston/Norman Rogers Airport

Airport
ICAO code
CYGK
IATA Code
YGK
Summary
ICAO Region
NAM
ICAO Territory
Location

Kingston, Ontario,

Serving
Kingston
Elevation
303 ft
Coordinates
44° 13' 23" N , 76° 35' 58" W
KCC
Airport WX
Lake Effect Snow
Metar
Observation
CYGK 301000Z 36004KT 15SM FEW040 03/02 A3039 RMK SC1 SC TR SLP297
Station
Kingston, Ont.
Date/Time
2022-09-30 10:00:00
Wind direction
360°
Wind speed
04 kts
Lowest cloud amount
few clouds
Temperature
3°C
Dew point
2°C
Humidity
93%
Weather condition
n/a

Description

Kingston Airport, or Norman Rogers Airport, is an airport located 4.3 nm west of the center of Kingston, Ontario, Canada.

Climatology

Humid Continental climate (Köppen climate classification Dfb) - Variable weather patterns and a large seasonal temperature variance. Summers are often warm and humid with frequent thunderstorms and winters can be very cold with frequent snowfall and persistent snow cover.

Runways

Designator Length Width Surface Rops
7/25 1199 30 ASP Yes/Yes
1/19 1524 30 ASP Yes/Yes

Airport map

Aerial View

SKYbrary Partners:

Safety knowledge contributed by: